Airfield :
LOGIN :

Register | Disclaimer

   EN    FR    IT 

 










Legend :    VFR   Marginal VFR   IFR   Intensive IFR   Very Intensive IFR
Visi :
Ceiling :
>= 8 km
>= 3000ft
5 to 8 km
1000 to 3000 ft
1500m to 5 km
500 to 1000 ft
800 to 1500m
200 to 500 ft
< 800m
< 200 ft
Symbols :   Thunderstorms  Fog  Heavy snow  Heavy precipitations  Wind > 20 kt
SIGMETs :     Misc.  Thunderstorms  Icing  Turbulence  Mountain Waves  Volcanic Ashes






- Airport Elevation : 190 ft
- IATA code : CAX


EGNC - Carlisle

CURRENT METAR :
  • 241120Z 26009KT 6000 FEW003 OVC005 07/07 Q1021

EXPIRED METARs :
  • 241050Z 26007KT 230V290 8000 OVC005 07/07 Q1021
  • 241020Z 25008KT 8000 FEW005 OVC007 07/06 Q1021
  • 240950Z 26007KT 230V290 8000 OVC005 07/06 Q1021
  • 240920Z 26010KT 8000 OVC005 06/06 Q1021
  • 240850Z 26010KT 4000 BR OVC005 06/06 Q1021

TAF TAF EGNC
Valid from the 24 at 12:00 until the 24 at 18:00 UTC


241101Z 2412/2418 23007KT 6000 BKN007
TEMPO 2412/2418 3000 -DZ BR BKN004
PROB30
TEMPO 2413/2418 1100 DZ BKN001
ATIS : +44 1228 574 123



MET'MAP, your aeronautical weather chart ! - Copyright ORBIFLY December 2007 - Disclaimer

ORBIFLY MET'MAP TEAM :

Programming & Development : Alexandra Zaïnal
Concept & original design : Baudouin d'Aumeries
Assistance for programming : Marc-Olivier Méhu
Technical & hardware support : Manuel Goepfert

Contact : metmap@orbifly.com




SOURCES & CREDITS :

   NOAA